Terminal Aerodrome Forecast
Issued by NWS

Home | Current Version | Previous Version | Text Only | Print | Product List | Glossary On
Versions: 1 2 3 4 5 6 7 8 9 10 11 12 13 14 15 16 17 18 19 20 21 22 23 24 25 26 27 28 29 30 31 32 33 34 35 36 37 38
000
FTAK31 PAFG 151731
TAFASC
TAF
PASC 151731Z 1518/1618 07015KT 2SM BR OVC005
     FM152000 08015G20KT 3SM -RA BR FEW003 OVC005
     FM160300 07018G25KT 1 1/2SM -RASN BR OVC007=

USA.gov is the U.S. government's official web portal to all federal, state and local government web resources and services.